createdAt,value
2022-08-17T00:02:18.094Z,19.44
2022-08-17T00:05:43.795Z,19.36
2022-08-17T00:08:53.047Z,19.35
2022-08-17T00:12:35.068Z,19.33
2022-08-17T00:15:22.536Z,19.30
2022-08-17T00:19:01.650Z,19.35
2022-08-17T00:22:31.233Z,19.29
2022-08-17T00:25:22.436Z,19.20
2022-08-17T00:28:27.690Z,19.25
2022-08-17T00:31:38.147Z,19.20
2022-08-17T00:34:42.299Z,19.16
2022-08-17T00:37:46.284Z,19.07
2022-08-17T00:40:59.545Z,19.03
2022-08-17T00:44:06.742Z,19.03
2022-08-17T00:47:10.914Z,19.03
2022-08-17T00:50:19.563Z,19.03
2022-08-17T00:53:29.331Z,19.02
2022-08-17T00:56:41.758Z,19.03
2022-08-17T01:00:01.881Z,19.04
2022-08-17T01:03:16.890Z,18.98
2022-08-17T01:06:24.481Z,18.98
2022-08-17T01:09:30.028Z,18.95
2022-08-17T01:12:37.014Z,18.95
2022-08-17T01:15:59.103Z,18.93
2022-08-17T01:19:16.377Z,18.92
2022-08-17T01:22:26.768Z,18.92
2022-08-17T01:25:31.870Z,18.87
2022-08-17T01:28:54.926Z,18.83
2022-08-17T01:32:04.780Z,18.82
2022-08-17T01:35:09.338Z,18.81
2022-08-17T01:38:13.712Z,18.77
2022-08-17T01:41:21.952Z,18.74
2022-08-17T01:44:27.715Z,18.73
2022-08-17T01:47:32.651Z,18.70
2022-08-17T01:50:44.586Z,18.65
2022-08-17T01:53:57.478Z,18.61
2022-08-17T01:57:02.049Z,18.61
2022-08-17T02:00:11.871Z,18.63
2022-08-17T02:03:16.255Z,18.68
2022-08-17T02:06:27.151Z,18.66
2022-08-17T02:09:32.677Z,18.65
2022-08-17T02:12:39.879Z,18.64
2022-08-17T02:15:44.866Z,18.56
2022-08-17T02:18:49.410Z,18.53
2022-08-17T02:21:54.792Z,18.50
2022-08-17T02:25:02.343Z,18.48
2022-08-17T02:28:06.914Z,18.47
2022-08-17T02:31:12.912Z,18.44
2022-08-17T02:34:17.409Z,18.47
2022-08-17T02:37:21.830Z,18.38
2022-08-17T02:40:36.389Z,18.23
2022-08-17T02:43:41.818Z,18.19
2022-08-17T02:46:46.214Z,18.14
2022-08-17T02:49:55.606Z,18.18
2022-08-17T02:53:02.387Z,18.11
2022-08-17T02:56:07.466Z,18.09
2022-08-17T02:59:11.600Z,18.08
2022-08-17T03:02:16.285Z,18.01
2022-08-17T03:05:25.344Z,18.03
2022-08-17T03:08:30.384Z,17.98
2022-08-17T03:11:35.424Z,17.95
2022-08-17T03:14:43.051Z,17.95
2022-08-17T03:17:47.648Z,17.93
2022-08-17T03:20:55.638Z,17.91
2022-08-17T03:23:59.899Z,17.93
2022-08-17T03:27:04.483Z,17.88
2022-08-17T03:30:10.797Z,17.90
2022-08-17T03:33:16.254Z,18.01
2022-08-17T03:36:21.127Z,18.05
2022-08-17T03:39:25.582Z,18.17
2022-08-17T03:42:31.940Z,18.17
2022-08-17T03:45:56.726Z,18.14
2022-08-17T03:49:19.625Z,18.13
2022-08-17T03:52:42.481Z,18.16
2022-08-17T03:56:05.139Z,18.14
2022-08-17T03:59:22.692Z,18.13
2022-08-17T04:02:32.979Z,18.16
2022-08-17T04:05:37.166Z,18.09
2022-08-17T04:08:41.340Z,18.06
2022-08-17T04:11:45.757Z,17.97
2022-08-17T04:14:53.107Z,17.85
2022-08-17T04:17:59.297Z,17.84
2022-08-17T04:21:04.119Z,17.79
2022-08-17T04:24:08.653Z,17.70
2022-08-17T04:27:12.743Z,17.64
2022-08-17T04:30:17.308Z,17.64
2022-08-17T04:33:25.768Z,17.64
2022-08-17T04:36:30.282Z,17.59
2022-08-17T04:39:34.781Z,17.54
2022-08-17T04:42:39.028Z,17.59
2022-08-17T04:45:55.596Z,17.66
2022-08-17T04:49:05.864Z,17.68
2022-08-17T04:52:10.912Z,17.74
2022-08-17T04:55:35.865Z,17.78
2022-08-17T04:58:40.174Z,17.77
2022-08-17T05:01:47.504Z,17.82
2022-08-17T05:04:52.202Z,17.88
2022-08-17T05:08:00.019Z,17.88
2022-08-17T05:11:05.448Z,17.87
2022-08-17T05:14:10.237Z,17.88
2022-08-17T05:17:14.235Z,17.83
2022-08-17T05:20:18.787Z,17.88
2022-08-17T05:23:27.105Z,17.90
2022-08-17T05:26:42.241Z,17.94
2022-08-17T05:29:47.027Z,17.96
2022-08-17T05:33:02.031Z,17.94
2022-08-17T05:36:10.904Z,17.89
2022-08-17T05:39:35.313Z,17.94
2022-08-17T05:42:39.668Z,18.01
2022-08-17T05:46:16.324Z,18.01
2022-08-17T05:49:28.020Z,18.01
2022-08-17T05:52:44.715Z,17.99
2022-08-17T05:56:00.072Z,18.01
2022-08-17T05:59:49.951Z,18.03
2022-08-17T06:04:00.609Z,18.06
2022-08-17T06:07:40.494Z,18.09
2022-08-17T06:11:06.942Z,18.24
2022-08-17T06:14:38.319Z,18.30
2022-08-17T06:17:43.789Z,18.35
2022-08-17T06:21:00.394Z,18.38
2022-08-17T06:24:34.877Z,18.46
2022-08-17T06:27:58.701Z,18.59
2022-08-17T06:31:14.872Z,18.70
2022-08-17T06:34:20.864Z,18.72
2022-08-17T06:38:10.384Z,18.72
2022-08-17T06:41:49.547Z,18.79
2022-08-17T06:45:15.333Z,18.81
2022-08-17T06:48:54.363Z,18.93
2022-08-17T06:52:45.457Z,19.05
2022-08-17T06:56:05.041Z,19.15
2022-08-17T06:59:20.428Z,19.29
2022-08-17T07:03:07.981Z,19.37
2022-08-17T07:06:27.065Z,19.46
2022-08-17T07:09:37.279Z,19.58
2022-08-17T07:12:44.673Z,19.65
2022-08-17T07:15:56.443Z,19.70
2022-08-17T07:19:01.305Z,19.77
2022-08-17T07:22:53.548Z,19.80
2022-08-17T07:26:06.787Z,19.92
2022-08-17T07:29:16.459Z,20.04
2022-08-17T07:32:31.474Z,20.14
2022-08-17T07:35:44.274Z,20.20
2022-08-17T07:38:58.118Z,20.30
2022-08-17T07:42:04.500Z,20.43
2022-08-17T07:45:29.292Z,20.50
2022-08-17T07:48:38.102Z,20.61
2022-08-17T07:51:48.097Z,20.69
2022-08-17T07:54:52.809Z,20.72
2022-08-17T07:57:59.067Z,20.77
2022-08-17T08:01:18.429Z,20.77
2022-08-17T08:08:06.177Z,20.99
2022-08-17T08:11:27.976Z,21.11
2022-08-17T08:14:38.617Z,21.19
2022-08-17T08:18:06.269Z,21.24
2022-08-17T08:21:28.963Z,21.31
2022-08-17T08:24:56.293Z,21.33
2022-08-17T08:28:20.135Z,21.39
2022-08-17T08:32:22.148Z,21.45
2022-08-17T08:35:53.641Z,21.49
2022-08-17T08:39:11.864Z,21.56
2022-08-17T08:42:49.626Z,21.64
2022-08-17T08:46:43.983Z,21.70
2022-08-17T08:50:07.481Z,21.83
2022-08-17T08:53:48.960Z,21.88
2022-08-17T09:00:34.461Z,21.93
2022-08-17T09:04:24.148Z,22.01
2022-08-17T09:08:26.710Z,22.09
2022-08-17T09:12:16.848Z,22.12
2022-08-17T09:15:46.146Z,22.19
2022-08-17T09:19:03.583Z,22.37
2022-08-17T09:22:34.831Z,22.36
2022-08-17T09:26:07.780Z,22.45
2022-08-17T09:29:16.327Z,22.54
2022-08-17T09:32:55.302Z,22.66
2022-08-17T09:36:31.155Z,22.78
2022-08-17T09:40:27.080Z,22.99
2022-08-17T09:43:53.611Z,23.12
2022-08-17T09:47:46.679Z,23.23
2022-08-17T09:51:07.049Z,23.26
2022-08-17T09:54:38.553Z,23.36
2022-08-17T09:58:34.762Z,23.54
2022-08-17T10:01:57.267Z,23.69
2022-08-17T10:05:37.374Z,23.71
2022-08-17T10:09:26.428Z,23.92
2022-08-17T10:12:50.440Z,24.01
2022-08-17T10:16:32.174Z,24.01
2022-08-17T10:19:46.326Z,24.13
2022-08-17T10:23:26.947Z,24.19
2022-08-17T10:26:40.439Z,24.24
2022-08-17T10:30:05.183Z,24.43
2022-08-17T10:33:23.718Z,24.52
2022-08-17T10:36:54.694Z,24.82
2022-08-17T10:40:26.471Z,24.93
2022-08-17T10:44:37.175Z,25.04
2022-08-17T10:47:55.590Z,25.18
2022-08-17T10:51:06.084Z,25.30
2022-08-17T10:54:25.667Z,25.30
2022-08-17T10:57:30.119Z,25.38
2022-08-17T11:00:43.589Z,25.47
2022-08-17T11:03:55.896Z,25.70
2022-08-17T11:07:03.376Z,25.99
2022-08-17T11:10:32.403Z,26.33
2022-08-17T11:14:06.470Z,26.53
2022-08-17T11:17:31.790Z,26.71
2022-08-17T11:21:09.671Z,26.77
2022-08-17T11:24:34.802Z,26.75
2022-08-17T11:27:39.505Z,26.74
2022-08-17T11:31:03.462Z,26.76
2022-08-17T11:34:26.442Z,26.65
2022-08-17T11:37:40.697Z,26.60
2022-08-17T11:40:54.125Z,26.39
2022-08-17T11:44:37.744Z,26.42
2022-08-17T11:48:27.079Z,26.43
2022-08-17T11:52:01.437Z,26.27
2022-08-17T11:55:34.138Z,26.31
2022-08-17T11:58:44.794Z,26.24
2022-08-17T12:01:57.239Z,26.16
2022-08-17T12:05:16.928Z,25.97
2022-08-17T12:08:23.088Z,25.97
2022-08-17T12:12:11.965Z,25.98
2022-08-17T12:15:28.589Z,26.00
2022-08-17T12:18:38.342Z,26.02
2022-08-17T12:22:11.525Z,26.06
2022-08-17T12:25:36.808Z,26.14
2022-08-17T12:28:47.495Z,26.22
2022-08-17T12:31:54.299Z,26.24
2022-08-17T12:34:59.557Z,26.29
2022-08-17T12:38:32.163Z,26.29
2022-08-17T12:41:42.249Z,26.31
2022-08-17T12:44:50.734Z,26.35
2022-08-17T12:48:21.467Z,26.40
2022-08-17T12:51:26.238Z,26.41
2022-08-17T12:54:54.672Z,26.42
2022-08-17T12:57:59.798Z,26.41
2022-08-17T13:01:15.117Z,26.42
2022-08-17T13:04:20.632Z,26.47
2022-08-17T13:07:33.024Z,26.48
2022-08-17T13:10:38.076Z,26.42
2022-08-17T13:13:56.030Z,26.33
2022-08-17T13:17:06.273Z,26.24
2022-08-17T13:20:15.118Z,26.16
2022-08-17T13:23:21.167Z,26.13
2022-08-17T13:26:40.405Z,26.10
2022-08-17T13:29:45.193Z,26.10
2022-08-17T13:32:57.599Z,26.11
2022-08-17T13:36:09.359Z,26.04
2022-08-17T13:39:24.159Z,26.17
2022-08-17T13:42:51.467Z,26.05
2022-08-17T13:46:10.415Z,26.10
2022-08-17T13:49:15.441Z,26.05
2022-08-17T13:52:43.754Z,26.07
2022-08-17T13:55:57.420Z,25.99
2022-08-17T13:59:16.672Z,25.96
2022-08-17T14:02:40.320Z,25.98
2022-08-17T14:05:46.041Z,25.94
2022-08-17T14:08:54.157Z,25.89
2022-08-17T14:12:00.357Z,25.91
2022-08-17T14:15:05.915Z,25.92
2022-08-17T14:18:10.724Z,26.05
2022-08-17T14:21:15.262Z,26.07
2022-08-17T14:24:30.185Z,26.13
2022-08-17T14:27:41.837Z,26.23
2022-08-17T14:30:57.031Z,26.31
2022-08-17T14:34:01.405Z,26.27
2022-08-17T14:37:05.844Z,26.18
2022-08-17T14:40:13.162Z,26.11
2022-08-17T14:43:18.516Z,26.07
2022-08-17T14:46:23.098Z,25.93
2022-08-17T14:49:28.098Z,25.95
2022-08-17T14:52:32.748Z,25.86
2022-08-17T14:55:40.735Z,25.79
2022-08-17T14:58:45.793Z,25.90
2022-08-17T15:01:50.248Z,25.96
2022-08-17T15:04:59.426Z,26.01
2022-08-17T15:08:05.533Z,25.99
2022-08-17T15:11:11.898Z,25.94
2022-08-17T15:14:18.888Z,25.89
2022-08-17T15:17:23.384Z,25.78
2022-08-17T15:20:29.990Z,25.79
2022-08-17T15:23:34.548Z,25.70
2022-08-17T15:26:39.148Z,25.66
2022-08-17T15:29:43.631Z,25.51
2022-08-17T15:32:51.247Z,25.49
2022-08-17T15:36:04.792Z,25.45
2022-08-17T15:39:09.169Z,25.35
2022-08-17T15:42:13.627Z,25.39
2022-08-17T15:45:24.933Z,25.39
2022-08-17T15:48:43.744Z,25.48
2022-08-17T15:51:48.212Z,25.50
2022-08-17T15:54:59.197Z,25.59
2022-08-17T15:58:03.740Z,25.57
2022-08-17T16:01:18.211Z,25.56
2022-08-17T16:04:32.371Z,25.65
2022-08-17T16:07:37.705Z,25.66
2022-08-17T16:10:42.593Z,25.60
2022-08-17T16:13:54.663Z,25.51
2022-08-17T16:17:00.662Z,25.43
2022-08-17T16:20:06.010Z,25.35
2022-08-17T16:23:15.071Z,25.24
2022-08-17T16:26:23.386Z,25.17
2022-08-17T16:29:28.047Z,25.28
2022-08-17T16:32:32.986Z,25.26
2022-08-17T16:35:37.629Z,25.21
2022-08-17T16:38:42.125Z,25.09
2022-08-17T16:41:46.463Z,24.99
2022-08-17T16:44:59.609Z,25.06
2022-08-17T16:48:04.539Z,25.08
2022-08-17T16:51:08.626Z,24.97
2022-08-17T16:54:17.586Z,25.00
2022-08-17T16:57:25.229Z,24.97
2022-08-17T17:00:30.036Z,24.95
2022-08-17T17:03:37.262Z,24.89
2022-08-17T17:07:05.393Z,24.90
2022-08-17T17:10:53.059Z,24.75
2022-08-17T17:14:05.132Z,24.75
2022-08-17T17:17:32.046Z,24.63
2022-08-17T17:20:56.339Z,24.53
2022-08-17T17:24:13.186Z,24.52
2022-08-17T17:27:32.319Z,24.45
2022-08-17T17:30:43.153Z,24.41
2022-08-17T17:33:52.485Z,24.33
2022-08-17T17:37:05.857Z,24.34
2022-08-17T17:40:25.225Z,24.17
2022-08-17T17:43:39.940Z,24.11
2022-08-17T17:47:00.875Z,24.10
2022-08-17T17:50:08.443Z,24.00
2022-08-17T17:53:35.063Z,23.96
2022-08-17T17:57:08.347Z,23.90
2022-08-17T18:00:51.172Z,23.85
2022-08-17T18:04:29.051Z,23.82
2022-08-17T18:07:55.436Z,23.75
2022-08-17T18:11:23.963Z,23.71
2022-08-17T18:15:06.226Z,23.67
2022-08-17T18:18:14.889Z,23.68
2022-08-17T18:21:35.217Z,23.66
2022-08-17T18:24:44.945Z,23.60
2022-08-17T18:27:52.449Z,23.58
2022-08-17T18:31:19.114Z,23.51
2022-08-17T18:34:47.235Z,23.53
2022-08-17T18:37:57.757Z,23.47
2022-08-17T18:41:20.385Z,23.45
2022-08-17T18:44:55.170Z,23.36
2022-08-17T18:48:00.708Z,23.34
2022-08-17T18:51:41.630Z,23.32
2022-08-17T18:55:13.118Z,23.23
2022-08-17T18:58:24.828Z,23.25
2022-08-17T19:02:00.004Z,23.17
2022-08-17T19:05:13.616Z,23.10
2022-08-17T19:08:29.071Z,23.03
2022-08-17T19:11:35.782Z,22.93
2022-08-17T19:14:41.345Z,22.64
2022-08-17T19:18:31.795Z,22.19
2022-08-17T19:22:00.214Z,21.73
2022-08-17T19:25:17.274Z,21.46
2022-08-17T19:28:36.894Z,21.15
2022-08-17T19:31:41.743Z,20.87
2022-08-17T19:34:46.626Z,20.57
2022-08-17T19:38:15.437Z,20.32
2022-08-17T19:41:29.448Z,19.90
2022-08-17T19:44:37.666Z,19.63
2022-08-17T19:48:14.931Z,19.47
2022-08-17T19:51:37.684Z,19.40
2022-08-17T19:55:08.946Z,19.39
2022-08-17T19:58:48.815Z,19.42
2022-08-17T20:02:48.456Z,19.50
2022-08-17T20:06:12.617Z,19.55
2022-08-17T20:09:42.033Z,19.59
2022-08-17T20:12:51.807Z,19.64
2022-08-17T20:15:56.403Z,19.64
2022-08-17T20:19:28.358Z,19.61
2022-08-17T20:22:52.374Z,19.54
2022-08-17T20:26:21.023Z,19.52
2022-08-17T20:29:49.276Z,19.55
2022-08-17T20:32:57.337Z,19.60
2022-08-17T20:36:14.177Z,19.62
2022-08-17T20:40:06.364Z,19.61
2022-08-17T20:43:35.149Z,19.63
2022-08-17T20:46:57.006Z,19.63
2022-08-17T20:50:13.876Z,19.64
2022-08-17T20:53:49.348Z,19.64
2022-08-17T20:56:57.311Z,19.66
2022-08-17T21:00:06.635Z,19.64
2022-08-17T21:03:22.827Z,19.67
2022-08-17T21:06:28.372Z,19.67
2022-08-17T21:09:32.777Z,19.65
2022-08-17T21:13:04.684Z,19.62
2022-08-17T21:16:35.306Z,19.62
2022-08-17T21:20:17.427Z,19.58
2022-08-17T21:23:58.541Z,19.60
2022-08-17T21:27:39.938Z,19.61
2022-08-17T21:30:54.823Z,19.68
2022-08-17T21:34:26.887Z,19.64
2022-08-17T21:37:48.479Z,19.67
2022-08-17T21:40:53.846Z,19.67
2022-08-17T21:44:12.142Z,19.66
2022-08-17T21:47:27.274Z,19.68
2022-08-17T21:50:32.177Z,19.65
2022-08-17T21:53:42.143Z,19.66
2022-08-17T21:56:48.334Z,19.67
2022-08-17T22:00:01.124Z,19.67
2022-08-17T22:03:21.181Z,19.68
2022-08-17T22:06:29.742Z,19.67
2022-08-17T22:09:48.279Z,19.58
2022-08-17T22:13:17.816Z,19.55
2022-08-17T22:16:29.444Z,19.56
2022-08-17T22:19:36.830Z,19.54
2022-08-17T22:23:08.467Z,19.53
2022-08-17T22:26:16.448Z,19.51
2022-08-17T22:29:44.054Z,19.44
2022-08-17T22:32:49.876Z,19.43
2022-08-17T22:36:34.516Z,19.44
2022-08-17T22:39:40.744Z,19.37
2022-08-17T22:42:47.421Z,19.38
2022-08-17T22:45:56.719Z,19.34
2022-08-17T22:49:01.009Z,19.31
2022-08-17T22:52:22.773Z,19.29
2022-08-17T22:55:49.518Z,19.23
2022-08-17T22:59:16.517Z,19.23
2022-08-17T23:02:27.805Z,19.19
2022-08-17T23:05:34.043Z,19.20
2022-08-17T23:08:50.226Z,19.20
2022-08-17T23:11:58.511Z,19.15
2022-08-17T23:15:03.733Z,19.11
2022-08-17T23:18:08.188Z,19.07
2022-08-17T23:21:13.492Z,19.08
2022-08-17T23:24:26.899Z,19.10
2022-08-17T23:27:31.737Z,19.11
2022-08-17T23:30:44.533Z,19.10
2022-08-17T23:33:49.638Z,19.06
2022-08-17T23:36:55.510Z,19.06
2022-08-17T23:40:00.341Z,19.09
2022-08-17T23:43:11.414Z,19.05
2022-08-17T23:46:29.477Z,19.01
2022-08-17T23:49:37.548Z,19.02
2022-08-17T23:52:43.837Z,19.01
2022-08-17T23:55:48.700Z,19.01
2022-08-17T23:59:13.571Z,19.05
